Frisby, Kentucky
Current Conditions -  °F | °C
As of 7:56 PM on Tuesday 27 Jan 2015 (Local Time) from KEKQ Reporting Station
Overcast Overcast  
Wind Chill: 26°   Ceiling: 1600
Heat Index: 32°   Visibility: 10mi
Dew Point: 27°   Wind: 6mph
Humidity: 82%   Direction: 330°NNW
Pressure: 30.19"   Gusts: NA
Location:  36.8129°N, 84.8215°W
Report Text: KEKQ 280056Z AUTO 33005KT 10SM OVC016 00/M03 A3019 RMK AO2 T00001027 SLP236
Loading
Personal Weather Stations






























Interactive Weather Map New forecast layout! Learn more

10-Day Weather Forecast

Advertisements
Track Severe Weather on mobile